Weather

Clear
Monday 09/25 20%
Clear
Mainly clear. Lows overnight in the low 50s.
Chance of a Thunderstorm
Tuesday 09/26 40%
Chance of a Thunderstorm
Mostly sunny in the morning then increasing clouds with some scattered thunderstorms later in the day. High 72F. Winds ESE at 15 to 25 mph. Chance of rain 40%.
Chance of Rain
Wednesday 09/27 70%
Chance of Rain
Showers and a few thunderstorms likely. High 64F. Winds ENE at 15 to 25 mph. Chance of rain 70%.
Thunderstorm
Thursday 09/28 90%
Thunderstorm
Thunderstorms. High 68F. Winds ESE at 5 to 10 mph. Chance of rain 90%.
Thunderstorm
Friday 09/29 80%
Thunderstorm
Thunderstorms likely. High 71F. Winds SE at 5 to 10 mph. Chance of rain 80%.

 

 

For a detailed forecast click the banner below.

ballooncastlogo

 

 

Available data for KABQ from the past 2 hours
ALBUQUERQUE, NM
Metar
KABQ 252152Z 02006KT 10SM FEW110 23/M08 A2993 RMK AO2 SLP065 CB DSNT SE T02331083

21:52 UTC

Wind: 20° 6kt

Visibility: 10 SM

Sky: FEW 11000 ft

Temp: 23 deg C / 73.4 deg F

Dewpoint: -8 deg C / 17.6 deg F

Pressure: 29.93 inHg

TAF
KABQ 251726Z 2518/2618 32008KT P6SM FEW090 FM260300 08014G24KT P6SM SCT250 FM260600 08022G34KT P6SM SCT050 FM261600 09015KT P6SM VCSH BKN040